Terminal Aerodrome Forecast
Issued by NWS

Home | Current Version | Previous Version | Text Only | Print | Product List | Glossary Off
Versions: 1 2 3 4 5 6 7 8 9 10 11 12 13 14 15 16 17 18 19

000
FTUS43 KGRB 231120
TAFRHI
TAF
KRHI 231120Z 2312/2412 17007KT P6SM -SHSN OVC050
      TEMPO 2312/2314 1 1/2SM -SHSN BKN030
     FM231400 17010G18KT P6SM OVC070
     FM231900 17009G17KT P6SM OVC040 WS020/21045KT
     FM240200 16007KT P6SM -RA OVC024 WS020/22045KT
     FM240400 18004KT 5SM -FZRAPL OVC013 WS020/25050KT
     FM240900 VRB03KT 3SM -FZRA OVC009 WS020/26035KT=

USA.gov is the U.S. government's official web portal to all federal, state and local government web resources and services.